Time;durP1;ratioP1;P1;durP2;ratioP2;P2;SDS_P1;SDS_P2;PMS_P1;PMS_P2;Temp;Humidity;BMP_temperature;BMP_pressure;BME280_temperature;BME280_humidity;BME280_pressure;Samples;Min_cycle;Max_cycle;Signal;HPM_P1;HPM_P2
2023/12/07 00:01:26;;;;;;;11.75;4.65;;;-0.40;99.90;;;;;;4995592;28;20033;-76
2023/12/07 00:03:51;;;;;;;11.63;4.00;;;-0.40;99.90;;;;;;4995626;28;20058;-76
2023/12/07 00:06:17;;;;;;;10.90;4.28;;;-0.40;99.90;;;;;;4994779;28;20488;-76
2023/12/07 00:08:42;;;;;;;15.88;5.25;;;-0.40;99.90;;;;;;4993718;28;20026;-75
2023/12/07 00:11:08;;;;;;;10.25;4.20;;;-0.40;99.90;;;;;;4994709;28;20517;-76
2023/12/07 00:13:33;;;;;;;10.75;5.00;;;-0.40;99.90;;;;;;4993679;28;20425;-76
2023/12/07 00:15:59;;;;;;;10.55;4.85;;;-0.50;99.90;;;;;;4993513;28;20023;-75
2023/12/07 00:18:24;;;;;;;20.85;5.45;;;-0.50;99.90;;;;;;4994762;28;20034;-76
2023/12/07 00:20:50;;;;;;;8.93;4.28;;;-0.50;99.90;;;;;;4993421;28;20030;-76
2023/12/07 00:23:15;;;;;;;9.93;4.20;;;-0.50;99.90;;;;;;4994933;28;20025;-76
2023/12/07 00:25:41;;;;;;;10.57;4.07;;;-0.50;99.90;;;;;;4994905;28;20021;-76
2023/12/07 00:28:07;;;;;;;10.30;4.15;;;-0.50;99.90;;;;;;4994913;28;20018;-76
2023/12/07 00:30:33;;;;;;;10.93;4.20;;;-0.50;99.90;;;;;;4994630;28;20536;-76
2023/12/07 00:32:59;;;;;;;12.90;5.43;;;-0.50;99.90;;;;;;4994625;28;20026;-76
2023/12/07 00:35:25;;;;;;;9.13;4.22;;;-0.60;99.90;;;;;;4995297;28;20030;-76
2023/12/07 00:37:50;;;;;;;12.05;4.60;;;-0.60;99.90;;;;;;4994633;28;20450;-76
2023/12/07 00:40:16;;;;;;;8.40;4.53;;;-0.60;99.90;;;;;;4993084;28;20394;-76
2023/12/07 00:42:43;;;;;;;10.73;3.95;;;-0.60;99.90;;;;;;4994494;28;20051;-75
2023/12/07 00:45:08;;;;;;;11.85;5.10;;;-0.60;99.90;;;;;;4993832;28;20077;-76
2023/12/07 00:47:34;;;;;;;7.35;3.60;;;-0.60;99.90;;;;;;4993509;28;20475;-76
2023/12/07 00:50:00;;;;;;;9.48;4.00;;;-0.70;99.90;;;;;;4993206;28;20030;-76
2023/12/07 00:52:26;;;;;;;13.07;4.22;;;-0.70;99.90;;;;;;4994330;28;20046;-75
2023/12/07 00:54:52;;;;;;;13.90;5.63;;;-0.70;99.90;;;;;;4994433;28;20513;-76
2023/12/07 00:57:17;;;;;;;12.50;4.95;;;-0.70;99.90;;;;;;4992540;28;20030;-76
2023/12/07 00:59:43;;;;;;;11.27;4.35;;;-0.70;99.90;;;;;;4994290;28;20150;-76
2023/12/07 01:02:08;;;;;;;9.05;4.35;;;-0.70;99.90;;;;;;4993167;28;20363;-75
2023/12/07 01:04:34;;;;;;;12.68;4.93;;;-0.80;99.90;;;;;;4993088;28;20379;-76
2023/12/07 01:06:59;;;;;;;8.50;3.60;;;-0.80;99.90;;;;;;4994282;28;20022;-76
2023/12/07 01:09:25;;;;;;;11.10;4.30;;;-0.90;99.90;;;;;;4993294;28;20046;-75
2023/12/07 01:11:51;;;;;;;8.48;3.42;;;-0.90;99.90;;;;;;4994509;28;20098;-76
2023/12/07 01:14:18;;;;;;;12.90;4.63;;;-1.00;99.90;;;;;;4994516;28;20014;-76
2023/12/07 01:16:44;;;;;;;10.88;4.00;;;-0.90;99.90;;;;;;4993096;28;20126;-75
2023/12/07 01:19:13;;;;;;;11.23;5.03;;;-1.00;99.90;;;;;;4994286;28;20034;-76
2023/12/07 01:21:39;;;;;;;17.83;4.43;;;-1.00;99.90;;;;;;4993174;28;20023;-76
2023/12/07 01:24:05;;;;;;;15.38;4.20;;;-1.00;99.90;;;;;;4993228;28;20027;-76
2023/12/07 01:26:30;;;;;;;13.55;4.63;;;-1.00;99.90;;;;;;4994646;28;20105;-75
2023/12/07 01:28:56;;;;;;;15.68;4.20;;;-1.10;99.90;;;;;;4994672;28;20023;-75
2023/12/07 01:31:21;;;;;;;9.90;4.32;;;-1.10;99.90;;;;;;4993289;28;20063;-76
2023/12/07 01:33:47;;;;;;;9.18;3.80;;;-1.10;99.90;;;;;;4993534;28;20386;-76
2023/12/07 01:36:13;;;;;;;11.48;4.63;;;-1.10;99.90;;;;;;4994606;28;20493;-75
2023/12/07 01:38:38;;;;;;;8.88;3.63;;;-1.10;99.90;;;;;;4994027;28;20074;-76
2023/12/07 01:41:04;;;;;;;13.02;4.45;;;-1.10;99.90;;;;;;4994399;28;20441;-76
2023/12/07 01:43:29;;;;;;;12.10;3.90;;;-1.10;99.90;;;;;;4994687;28;20097;-76
2023/12/07 01:45:57;;;;;;;10.13;4.05;;;-1.20;99.90;;;;;;4994391;28;20390;-76
2023/12/07 01:48:26;;;;;;;5.78;3.00;;;-1.10;99.90;;;;;;4994050;28;20026;-76
2023/12/07 01:50:52;;;;;;;;;;;-1.20;99.90;;;;;;4994105;28;20018;-76
2023/12/07 01:53:19;;;;;;;8.40;3.08;;;-1.20;99.90;;;;;;4995112;28;19912;-75
2023/12/07 01:55:45;;;;;;;9.35;3.85;;;-1.20;99.90;;;;;;4994462;28;20015;-76
2023/12/07 01:58:11;;;;;;;12.48;4.32;;;-1.20;99.90;;;;;;4995055;28;20031;-75
2023/12/07 02:00:37;;;;;;;8.35;3.85;;;-1.20;99.90;;;;;;4995337;28;20403;-75
2023/12/07 02:03:04;;;;;;;12.07;4.22;;;-0.10;99.90;;;;;;4994525;28;20018;-76
2023/12/07 02:05:31;;;;;;;11.20;3.83;;;-1.20;99.90;;;;;;4993238;28;20019;-76
2023/12/07 02:07:58;;;;;;;11.30;4.22;;;-1.20;99.90;;;;;;4996191;28;20113;-75
2023/12/07 02:10:24;;;;;;;8.95;3.63;;;-1.20;99.90;;;;;;4997781;28;20110;-75
2023/12/07 02:12:52;;;;;;;9.93;3.63;;;-1.20;99.90;;;;;;4997862;28;20043;-76
2023/12/07 02:15:18;;;;;;;10.05;4.20;;;-1.20;99.90;;;;;;4997715;28;20029;-76
2023/12/07 02:17:50;;;;;;;8.38;3.33;;;-1.20;99.90;;;;;;4996632;28;20049;-75
2023/12/07 02:20:54;;;;;;;11.10;4.00;;;-1.20;99.90;;;;;;4997334;28;20027;-76
2023/12/07 02:23:21;;;;;;;10.35;4.18;;;-1.10;99.90;;;;;;4976072;28;20045;-76
2023/12/07 02:25:54;;;;;;;11.55;3.95;;;-1.20;99.90;;;;;;4993693;28;20038;-76
2023/12/07 02:28:20;;;;;;;9.23;3.28;;;-1.20;99.90;;;;;;4997904;28;20494;-76
2023/12/07 02:30:46;;;;;;;10.02;3.78;;;-1.10;99.90;;;;;;4995958;28;20023;-75
2023/12/07 02:33:12;;;;;;;10.43;3.60;;;-1.10;99.90;;;;;;4996442;28;20122;-76
2023/12/07 02:35:40;;;;;;;12.63;3.42;;;-1.10;99.90;;;;;;4998110;28;20027;-76
2023/12/07 02:38:07;;;;;;;8.73;3.05;;;-0.20;99.90;;;;;;4997895;28;20061;-76
2023/12/07 02:40:34;;;;;;;6.07;2.80;;;-1.10;99.90;;;;;;4995765;28;20024;-76
2023/12/07 02:43:01;;;;;;;7.05;3.72;;;-1.10;99.90;;;;;;4996186;28;20018;-76
2023/12/07 02:45:27;;;;;;;9.02;3.97;;;-1.10;99.90;;;;;;4997340;28;20046;-76
2023/12/07 02:47:53;;;;;;;8.52;3.70;;;-1.20;99.90;;;;;;4996006;28;20049;-76
2023/12/07 02:50:19;;;;;;;9.82;3.72;;;-1.20;99.90;;;;;;4997573;28;20049;-76
2023/12/07 02:52:45;;;;;;;8.95;3.35;;;-1.20;99.90;;;;;;4997668;28;20097;-76
2023/12/07 02:55:10;;;;;;;9.52;4.13;;;-1.20;99.90;;;;;;4998016;28;20057;-76
2023/12/07 02:57:36;;;;;;;9.82;3.58;;;-1.20;99.90;;;;;;4996030;28;20025;-76
2023/12/07 03:00:06;;;;;;;9.63;4.10;;;-1.20;99.90;;;;;;4996208;28;20027;-76
2023/12/07 03:02:37;;;;;;;7.32;3.17;;;-1.20;99.90;;;;;;4997153;28;20108;-76
2023/12/07 03:05:03;;;;;;;8.57;3.60;;;-1.20;99.90;;;;;;4997485;28;20033;-76
2023/12/07 03:07:29;;;;;;;7.32;3.42;;;-1.20;99.90;;;;;;4997280;28;20026;-76
2023/12/07 03:09:54;;;;;;;9.43;3.92;;;-1.20;99.90;;;;;;4996840;28;20405;-76
2023/12/07 03:12:20;;;;;;;10.80;4.15;;;-1.20;99.90;;;;;;4997063;28;20041;-76
2023/12/07 03:14:46;;;;;;;10.65;4.25;;;-1.20;99.90;;;;;;4996372;28;20034;-76
2023/12/07 03:17:11;;;;;;;9.35;3.80;;;-1.20;99.90;;;;;;4995218;28;20019;-76
2023/12/07 03:19:40;;;;;;;9.05;3.55;;;-1.20;99.90;;;;;;4996183;28;20026;-76
2023/12/07 03:22:07;;;;;;;11.43;3.90;;;-1.10;99.90;;;;;;4995319;28;20086;-76
2023/12/07 03:24:33;;;;;;;12.85;4.65;;;-1.20;99.90;;;;;;4996384;28;20084;-76
2023/12/07 03:27:00;;;;;;;9.27;3.80;;;-1.20;99.90;;;;;;4996430;28;20122;-76
2023/12/07 03:29:26;;;;;;;9.73;3.80;;;-1.20;99.90;;;;;;4996298;28;20018;-76
2023/12/07 03:31:52;;;;;;;10.07;4.15;;;-1.10;99.90;;;;;;4996378;28;20031;-76
2023/12/07 03:34:17;;;;;;;8.15;3.60;;;-1.10;99.90;;;;;;4994760;28;20037;-76
2023/12/07 03:36:46;;;;;;;13.85;4.18;;;-1.10;99.90;;;;;;4994855;28;20030;-76
2023/12/07 03:39:11;;;;;;;9.55;4.18;;;-1.10;99.90;;;;;;4995190;28;20031;-76
2023/12/07 03:41:38;;;;;;;18.40;4.35;;;-1.10;99.90;;;;;;4994800;28;20113;-76
2023/12/07 03:44:04;;;;;;;34.00;4.90;;;-1.10;99.90;;;;;;4996377;28;20458;-76
2023/12/07 03:46:29;;;;;;;40.13;5.43;;;-1.00;99.90;;;;;;4996444;28;20505;-76
2023/12/07 03:48:55;;;;;;;34.38;5.18;;;-0.90;99.90;;;;;;4994694;28;20477;-76
2023/12/07 03:51:20;;;;;;;39.85;5.65;;;-0.90;99.90;;;;;;4994428;28;20026;-76
2023/12/07 03:53:46;;;;;;;26.10;5.75;;;-0.90;99.90;;;;;;4995599;28;20018;-76
2023/12/07 03:56:25;;;;;;;38.50;5.13;;;-0.90;99.90;;;;;;4995716;28;20093;-76
2023/12/07 03:58:51;;;;;;;46.58;5.57;;;-0.90;99.90;;;;;;4994658;28;20493;-76
2023/12/07 04:01:16;;;;;;;47.13;5.80;;;-0.90;99.90;;;;;;4996102;28;20027;-76
2023/12/07 04:03:42;;;;;;;71.43;5.70;;;-0.80;99.90;;;;;;4994101;28;20018;-76
2023/12/07 04:06:08;;;;;;;59.40;6.65;;;-0.80;99.90;;;;;;4994443;28;20034;-76
2023/12/07 04:08:34;;;;;;;38.08;5.03;;;-0.80;99.90;;;;;;4994501;28;20074;-76
2023/12/07 04:11:00;;;;;;;50.80;5.53;;;-0.90;99.90;;;;;;4995437;28;20030;-76
2023/12/07 04:13:25;;;;;;;38.50;4.75;;;-0.80;99.90;;;;;;4995527;28;20105;-76
2023/12/07 04:15:51;;;;;;;32.35;4.60;;;-0.80;99.90;;;;;;4995948;28;20444;-76
2023/12/07 04:18:17;;;;;;;44.63;5.80;;;-0.80;99.90;;;;;;4994273;28;20502;-76
2023/12/07 04:20:43;;;;;;;38.83;5.53;;;-0.80;99.90;;;;;;4995352;28;20062;-76
2023/12/07 04:23:08;;;;;;;24.85;4.85;;;-0.90;99.90;;;;;;4995268;28;20366;-76
2023/12/07 04:25:34;;;;;;;26.33;4.45;;;-0.80;99.90;;;;;;4995436;28;20498;-76
2023/12/07 04:27:59;;;;;;;38.38;4.55;;;-0.80;99.90;;;;;;4995240;28;20027;-76
2023/12/07 04:30:25;;;;;;;16.05;4.63;;;-0.70;99.90;;;;;;4995054;28;20023;-76
2023/12/07 04:32:51;;;;;;;23.88;4.05;;;-0.70;99.90;;;;;;4995122;28;20027;-76
2023/12/07 04:35:16;;;;;;;21.48;4.88;;;-0.70;99.90;;;;;;4994971;28;20026;-76
2023/12/07 04:37:42;;;;;;;17.38;4.25;;;-0.70;99.90;;;;;;4993615;28;20026;-76
2023/12/07 04:40:08;;;;;;;16.77;3.80;;;-0.60;99.90;;;;;;4995464;28;20022;-76
2023/12/07 04:42:33;;;;;;;47.63;5.75;;;-0.60;99.90;;;;;;4995300;28;20034;-76
2023/12/07 04:44:59;;;;;;;32.03;5.00;;;-0.60;99.90;;;;;;4995267;28;20026;-76
2023/12/07 04:47:25;;;;;;;23.70;4.70;;;-0.60;99.90;;;;;;4993876;28;20482;-76
2023/12/07 04:49:50;;;;;;;35.67;4.68;;;-0.60;99.90;;;;;;4995053;28;20030;-76
2023/12/07 04:52:16;;;;;;;10.35;4.22;;;-0.60;99.90;;;;;;4994189;28;20025;-76
2023/12/07 04:54:42;;;;;;;36.53;5.45;;;-0.60;99.90;;;;;;4993969;28;20023;-76
2023/12/07 04:57:07;;;;;;;43.28;4.72;;;-0.50;99.90;;;;;;4993934;28;20030;-76
2023/12/07 04:59:33;;;;;;;35.78;4.72;;;-0.50;99.90;;;;;;4995362;28;20078;-76
2023/12/07 05:01:59;;;;;;;64.32;6.07;;;-0.50;99.90;;;;;;4994460;28;20394;-76
2023/12/07 05:04:24;;;;;;;44.55;4.80;;;-0.50;99.90;;;;;;4993655;28;20033;-76
2023/12/07 05:06:50;;;;;;;51.67;5.75;;;-0.40;99.90;;;;;;4995502;28;20031;-76
2023/12/07 05:09:16;;;;;;;52.10;5.43;;;-0.40;99.90;;;;;;4993638;28;20042;-76
2023/12/07 05:11:41;;;;;;;38.47;4.90;;;-0.40;99.90;;;;;;4994909;28;20105;-76
2023/12/07 05:14:07;;;;;;;69.43;6.65;;;-0.40;99.90;;;;;;4994911;28;20426;-76
2023/12/07 05:16:33;;;;;;;50.58;5.68;;;-0.40;99.90;;;;;;4995837;28;20418;-76
2023/12/07 05:18:59;;;;;;;127.47;8.32;;;-0.30;99.90;;;;;;4994176;28;20022;-76
2023/12/07 05:21:25;;;;;;;75.53;6.35;;;-0.40;99.90;;;;;;4995420;28;20022;-76
2023/12/07 05:23:51;;;;;;;55.42;7.25;;;-0.30;99.90;;;;;;4994192;28;20486;-76
2023/12/07 05:26:17;;;;;;;94.35;8.38;;;-0.30;99.90;;;;;;4993496;28;20050;-76
2023/12/07 05:28:43;;;;;;;52.65;6.63;;;-0.20;99.90;;;;;;4994808;28;20023;-76
2023/12/07 05:31:15;;;;;;;54.67;7.78;;;-0.20;99.90;;;;;;4994529;28;20316;-76
2023/12/07 05:33:40;;;;;;;70.72;7.22;;;-0.20;99.90;;;;;;4995163;28;20033;-76
2023/12/07 05:36:06;;;;;;;90.28;8.82;;;-0.20;99.90;;;;;;4993376;28;20057;-76
2023/12/07 05:38:32;;;;;;;114.82;8.60;;;-0.20;99.90;;;;;;4993274;28;20034;-77
2023/12/07 05:40:57;;;;;;;87.95;7.32;;;-0.10;99.90;;;;;;4993450;28;20041;-76
2023/12/07 05:43:23;;;;;;;65.00;7.00;;;-0.10;99.90;;;;;;4997966;28;20026;-75
2023/12/07 05:45:49;;;;;;;64.45;7.10;;;-0.10;99.90;;;;;;4998702;28;20026;-75
2023/12/07 05:48:14;;;;;;;108.93;7.57;;;0.00;99.90;;;;;;4997013;28;20025;-75
2023/12/07 05:50:40;;;;;;;76.45;7.13;;;-0.10;99.90;;;;;;4998417;28;20022;-76
2023/12/07 05:53:07;;;;;;;69.22;8.82;;;-0.10;99.90;;;;;;4998629;28;20014;-75
2023/12/07 05:55:33;;;;;;;36.83;5.75;;;-0.10;99.90;;;;;;4998513;28;20046;-75
2023/12/07 05:57:58;;;;;;;45.22;6.80;;;0.00;99.90;;;;;;4997142;28;20026;-75
2023/12/07 06:00:24;;;;;;;53.10;7.50;;;-0.10;99.90;;;;;;4997133;28;20415;-75
2023/12/07 06:02:49;;;;;;;35.38;6.95;;;-0.10;99.90;;;;;;4997084;28;20026;-75
2023/12/07 06:05:15;;;;;;;44.55;7.43;;;-0.10;99.90;;;;;;4998338;28;20058;-75
2023/12/07 06:07:41;;;;;;;66.13;8.02;;;-0.20;99.90;;;;;;4997161;28;20027;-75
2023/12/07 06:10:07;;;;;;;47.78;7.45;;;-0.20;99.90;;;;;;4997895;28;20026;-75
2023/12/07 06:12:33;;;;;;;43.55;8.25;;;-0.20;99.90;;;;;;4998293;28;20446;-74
2023/12/07 06:14:58;;;;;;;41.72;7.00;;;-0.20;99.90;;;;;;4998303;28;20025;-75
2023/12/07 06:17:24;;;;;;;45.00;8.98;;;-0.20;99.90;;;;;;4998516;28;20027;-75
2023/12/07 06:19:52;;;;;;;42.42;8.57;;;-0.20;99.90;;;;;;4996490;28;20072;-75
2023/12/07 06:22:18;;;;;;;76.32;8.45;;;-0.20;99.90;;;;;;4998177;28;20438;-75
2023/12/07 06:24:44;;;;;;;50.78;8.80;;;-0.10;99.90;;;;;;4996470;28;20060;-75
2023/12/07 06:27:10;;;;;;;43.50;7.60;;;-0.20;99.90;;;;;;4998178;28;20029;-75
2023/12/07 06:29:36;;;;;;;78.82;9.52;;;-0.10;99.90;;;;;;4995971;28;20022;-75
2023/12/07 06:32:02;;;;;;;53.50;8.70;;;-0.10;99.90;;;;;;4996428;28;20088;-75
2023/12/07 06:34:30;;;;;;;58.10;8.02;;;-0.10;99.90;;;;;;4996439;28;20033;-75
2023/12/07 06:36:56;;;;;;;45.45;7.50;;;-0.10;99.90;;;;;;4997825;28;20030;-75
2023/12/07 06:39:21;;;;;;;30.42;8.02;;;-0.10;99.90;;;;;;4996404;28;20026;-75
2023/12/07 06:41:47;;;;;;;57.47;9.98;;;-0.10;99.90;;;;;;4996179;28;20106;-75
2023/12/07 06:44:12;;;;;;;40.00;8.88;;;-0.10;99.90;;;;;;4997961;28;20097;-75
2023/12/07 06:46:39;;;;;;;33.53;8.90;;;-0.10;99.90;;;;;;4996191;28;20501;-75
2023/12/07 06:49:04;;;;;;;77.65;9.07;;;-0.10;99.90;;;;;;4997083;28;20014;-75
2023/12/07 06:51:30;;;;;;;52.72;9.07;;;-0.10;99.90;;;;;;5016970;23;20400;-76
2023/12/07 06:53:55;;;;;;;59.45;8.85;;;-0.20;99.90;;;;;;5016221;28;20022;-76
2023/12/07 06:56:21;;;;;;;60.13;9.32;;;-0.20;99.90;;;;;;5015043;28;20022;-76
2023/12/07 06:58:47;;;;;;;73.43;8.57;;;-0.20;99.90;;;;;;5017095;28;20507;-76
2023/12/07 07:01:13;;;;;;;68.60;9.15;;;-0.20;99.90;;;;;;5017465;28;20057;-76
2023/12/07 07:03:39;;;;;;;42.05;7.50;;;-0.20;99.90;;;;;;5016327;28;20373;-76
2023/12/07 07:06:05;;;;;;;45.28;8.07;;;-0.20;99.90;;;;;;5015698;28;20025;-75
2023/12/07 07:08:30;;;;;;;84.25;8.43;;;-0.20;99.90;;;;;;5016069;28;20033;-75
2023/12/07 07:10:56;;;;;;;64.05;9.27;;;-0.20;99.90;;;;;;5015474;28;20428;-76
2023/12/07 07:13:22;;;;;;;72.75;8.35;;;-0.20;99.90;;;;;;5015484;28;20041;-76
2023/12/07 07:15:50;;;;;;;55.60;8.43;;;-0.20;99.90;;;;;;5015603;28;20117;-76
2023/12/07 07:18:15;;;;;;;74.57;7.70;;;-0.20;99.90;;;;;;5016491;28;20025;-76
2023/12/07 07:20:41;;;;;;;63.22;9.07;;;0.70;99.90;;;;;;5015393;28;20057;-76
2023/12/07 07:23:08;;;;;;;44.40;8.70;;;-0.30;99.90;;;;;;5017043;28;20021;-76
2023/12/07 07:25:34;;;;;;;40.97;9.07;;;-0.20;99.90;;;;;;5014848;28;20484;-76
2023/12/07 07:28:00;;;;;;;37.08;8.88;;;-0.20;99.90;;;;;;5016576;28;20030;-76
2023/12/07 07:30:26;;;;;;;86.63;10.27;;;-0.20;99.90;;;;;;5016760;28;20113;-76
2023/12/07 07:32:52;;;;;;;46.60;9.55;;;-0.20;99.90;;;;;;5016577;28;20025;-76
2023/12/07 07:35:17;;;;;;;44.90;8.25;;;-0.20;99.90;;;;;;5016293;28;20026;-76
2023/12/07 07:37:43;;;;;;;45.42;8.52;;;-0.20;99.90;;;;;;5014933;28;20037;-76
2023/12/07 07:40:11;;;;;;;40.25;9.20;;;-0.20;99.90;;;;;;5014510;28;20029;-76
2023/12/07 07:42:38;;;;;;;67.75;9.00;;;-0.20;99.90;;;;;;5015271;28;20052;-77
2023/12/07 07:45:05;;;;;;;64.10;8.60;;;-0.20;99.90;;;;;;5016277;28;20117;-76
2023/12/07 07:47:32;;;;;;;60.97;7.35;;;;;;;;;;5016186;28;20002;-76
2023/12/07 07:49:58;;;;;;;43.38;7.45;;;-0.30;99.90;;;;;;5016500;28;20022;-79
2023/12/07 07:52:24;;;;;;;53.22;7.70;;;-0.30;99.90;;;;;;5015095;28;20025;-78
2023/12/07 07:54:49;;;;;;;37.40;8.13;;;-0.20;99.90;;;;;;5015904;28;20022;-77
2023/12/07 07:57:15;;;;;;;48.40;7.53;;;-0.30;99.90;;;;;;5014972;28;20029;-79
2023/12/07 07:59:40;;;;;;;46.25;6.95;;;-0.20;99.90;;;;;;5016729;28;20097;-78
2023/12/07 08:02:06;;;;;;;47.78;8.63;;;-0.30;99.90;;;;;;5015862;28;20022;-78
2023/12/07 08:04:32;;;;;;;40.40;7.90;;;-0.50;99.90;;;;;;5014505;28;20563;-78
2023/12/07 08:06:57;;;;;;;46.70;8.55;;;-0.20;99.90;;;;;;5013893;28;20022;-78
2023/12/07 08:09:23;;;;;;;29.25;6.80;;;-0.20;99.90;;;;;;5016049;28;20488;-78
2023/12/07 08:11:48;;;;;;;47.10;7.72;;;-0.20;99.90;;;;;;5016236;28;20156;-78
2023/12/07 08:14:14;;;;;;;38.65;7.85;;;-0.10;99.90;;;;;;5014606;28;20025;-78
2023/12/07 08:16:44;;;;;;;38.75;7.63;;;-0.10;99.90;;;;;;5014685;28;20018;-78
2023/12/07 08:19:10;;;;;;;46.38;7.38;;;;;;;;;;5014448;28;20037;-78
2023/12/07 08:21:35;;;;;;;44.67;6.55;;;-0.20;99.90;;;;;;5015657;28;20030;-78
2023/12/07 08:24:01;;;;;;;35.90;5.45;;;-0.20;99.90;;;;;;5013745;28;20038;-78
2023/12/07 08:26:27;;;;;;;37.80;6.40;;;;;;;;;;5015160;28;20432;-77
2023/12/07 08:28:53;;;;;;;30.52;6.80;;;-0.10;99.90;;;;;;5014377;28;20048;-78
2023/12/07 08:31:20;;;;;;;47.85;8.10;;;;;;;;;;5016389;28;20412;-78
2023/12/07 08:33:45;;;;;;;42.28;7.45;;;-0.10;99.90;;;;;;5014448;28;20444;-78
2023/12/07 08:36:11;;;;;;;39.83;7.38;;;;;;;;;;5014503;28;20022;-77
2023/12/07 08:38:37;;;;;;;37.13;5.95;;;-0.10;99.90;;;;;;5014912;28;20033;-78
2023/12/07 08:41:03;;;;;;;52.55;7.25;;;-0.10;99.90;;;;;;5015682;28;20027;-78
2023/12/07 08:43:30;;;;;;;24.67;5.35;;;0.00;99.90;;;;;;5015499;28;20480;-78
2023/12/07 08:45:56;;;;;;;38.28;5.88;;;0.00;99.90;;;;;;5015377;28;20030;-78
2023/12/07 08:48:21;;;;;;;49.97;5.60;;;0.00;99.90;;;;;;5014021;28;20192;-78
2023/12/07 08:50:47;;;;;;;34.53;5.13;;;0.00;99.90;;;;;;5015300;28;20030;-78
2023/12/07 08:53:13;;;;;;;28.00;5.57;;;0.00;99.90;;;;;;5015405;28;20373;-78
2023/12/07 08:55:39;;;;;;;33.10;5.93;;;0.00;99.90;;;;;;5014596;28;20026;-78
2023/12/07 08:58:05;;;;;;;20.13;5.28;;;;;;;;;;5015434;28;20029;-78
2023/12/07 09:00:32;;;;;;;38.03;6.15;;;0.10;99.90;;;;;;5013939;28;20026;-78
2023/12/07 09:02:57;;;;;;;26.63;5.20;;;0.10;99.90;;;;;;5015493;28;20081;-78
2023/12/07 09:05:23;;;;;;;42.15;5.63;;;0.10;99.90;;;;;;5013991;28;20014;-78
2023/12/07 09:07:48;;;;;;;33.72;4.80;;;0.20;99.90;;;;;;5014123;28;20026;-76
2023/12/07 09:10:14;;;;;;;26.13;4.68;;;0.20;99.90;;;;;;5015207;28;20026;-78
2023/12/07 09:12:40;;;;;;;29.27;4.15;;;0.80;99.90;;;;;;5014009;28;20489;-77
2023/12/07 09:15:09;;;;;;;33.72;3.65;;;0.20;99.90;;;;;;5014069;28;20025;-78
2023/12/07 09:17:36;;;;;;;20.98;3.35;;;0.20;99.90;;;;;;5015350;28;20022;-78
2023/12/07 09:20:14;;;;;;;27.80;3.88;;;0.20;99.90;;;;;;5019368;28;20033;-78
2023/12/07 09:22:43;;;;;;;20.63;3.42;;;0.20;99.90;;;;;;5018673;28;20030;-77
2023/12/07 09:25:10;;;;;;;13.85;4.07;;;0.20;99.90;;;;;;5017360;28;20022;-77
2023/12/07 09:27:39;;;;;;;22.90;3.97;;;0.20;99.90;;;;;;5017854;28;20033;-77
2023/12/07 09:30:10;;;;;;;14.55;4.03;;;0.30;99.90;;;;;;5018396;28;20028;-77
2023/12/07 09:32:39;;;;;;;27.90;4.18;;;0.30;99.90;;;;;;5017646;28;20022;-76
2023/12/07 09:35:10;;;;;;;31.90;4.78;;;0.30;99.90;;;;;;5017664;28;20489;-77
2023/12/07 09:37:35;;;;;;;29.10;4.30;;;0.30;99.90;;;;;;5017626;28;20037;-77
2023/12/07 09:40:01;;;;;;;13.88;3.20;;;0.30;99.90;;;;;;5018480;28;20030;-77
2023/12/07 09:42:27;;;;;;;23.73;3.85;;;0.30;99.90;;;;;;5018339;28;20480;-77
2023/12/07 09:44:54;;;;;;;14.57;3.25;;;0.30;99.90;;;;;;5018439;28;20026;-77
2023/12/07 09:47:20;;;;;;;15.50;2.67;;;0.30;99.90;;;;;;5018851;28;20048;-77
2023/12/07 09:49:45;;;;;;;20.33;2.58;;;0.30;99.90;;;;;;5017211;28;20117;-77
2023/12/07 09:52:11;;;;;;;29.05;3.85;;;0.30;99.90;;;;;;5016959;28;20489;-77
2023/12/07 09:54:41;;;;;;;11.82;3.40;;;0.30;99.90;;;;;;5017560;28;20481;-77
2023/12/07 09:57:09;;;;;;;19.70;2.85;;;0.30;99.90;;;;;;5018168;28;20106;-77
2023/12/07 09:59:35;;;;;;;27.83;3.70;;;;;;;;;;5016202;28;20022;-77
2023/12/07 10:02:01;;;;;;;20.58;2.90;;;0.40;99.90;;;;;;5018872;28;20044;-77
2023/12/07 10:04:27;;;;;;;13.18;2.75;;;0.40;99.90;;;;;;5017210;28;20026;-77
2023/12/07 10:06:53;;;;;;;25.98;3.67;;;0.30;99.90;;;;;;5017375;28;20176;-77
2023/12/07 10:09:22;;;;;;;13.98;3.15;;;0.40;99.90;;;;;;5016829;28;20022;-77
2023/12/07 10:11:48;;;;;;;14.23;3.67;;;;;;;;;;5017543;28;20025;-77
2023/12/07 10:14:14;;;;;;;21.98;3.10;;;0.40;99.90;;;;;;5017060;28;20006;-77
2023/12/07 10:16:55;;;;;;;24.00;2.67;;;0.50;99.90;;;;;;5016842;28;20057;-77
2023/12/07 10:19:23;;;;;;;10.75;2.72;;;0.40;99.90;;;;;;5016912;28;20022;-77
2023/12/07 10:21:52;;;;;;;12.90;1.67;;;0.50;99.90;;;;;;5016856;28;20033;-78
2023/12/07 10:24:20;;;;;;;12.38;2.38;;;0.40;99.90;;;;;;5017451;28;20030;-77
2023/12/07 10:26:47;;;;;;;21.67;3.15;;;0.50;99.90;;;;;;5016479;28;20037;-77
2023/12/07 10:29:13;;;;;;;27.85;4.25;;;;;;;;;;5015744;28;20014;-77
2023/12/07 10:31:39;;;;;;;14.25;2.53;;;0.60;99.90;;;;;;5016167;28;20500;-77
2023/12/07 10:34:05;;;;;;;12.25;2.92;;;0.60;99.90;;;;;;5015783;28;20049;-77
2023/12/07 10:36:32;;;;;;;10.63;2.25;;;0.60;99.90;;;;;;5015659;28;20111;-77
2023/12/07 10:38:58;;;;;;;15.05;2.45;;;0.70;99.90;;;;;;5016715;28;20435;-77
2023/12/07 10:41:25;;;;;;;13.20;2.58;;;0.70;99.90;;;;;;5016744;28;20057;-78
2023/12/07 10:44:13;;;;;;;9.35;2.63;;;0.70;99.90;;;;;;5015480;28;20036;-79
2023/12/07 10:46:41;;;;;;;7.17;1.93;;;0.60;99.90;;;;;;5016588;28;20113;-78
2023/12/07 10:49:10;;;;;;;13.75;2.15;;;0.60;99.90;;;;;;5015532;28;20327;-79
2023/12/07 10:51:51;;;;;;;33.80;4.18;;;0.70;99.90;;;;;;5015079;28;20038;-79
2023/12/07 10:54:21;;;;;;;16.45;3.58;;;0.60;99.90;;;;;;5015126;28;20026;-79
2023/12/07 10:56:50;;;;;;;19.33;3.25;;;0.80;99.90;;;;;;5015340;28;20508;-79
2023/12/07 10:59:16;;;;;;;11.65;2.65;;;0.70;99.90;;;;;;5016494;28;20026;-79
2023/12/07 11:01:43;;;;;;;11.25;3.50;;;0.80;99.90;;;;;;5015362;28;20094;-78
2023/12/07 11:04:13;;;;;;;17.83;3.40;;;0.80;99.90;;;;;;5016135;28;20497;-79
2023/12/07 11:06:46;;;;;;;11.25;3.15;;;0.90;99.90;;;;;;5014967;28;20026;-79
2023/12/07 11:09:24;;;;;;;21.85;3.95;;;0.80;99.90;;;;;;5015058;28;20041;-79
2023/12/07 11:12:08;;;;;;;28.30;4.50;;;0.80;99.90;;;;;;5014955;28;20022;-79
2023/12/07 11:14:33;;;;;;;21.00;4.13;;;0.90;99.90;;;;;;5015009;28;20375;-79
2023/12/07 11:16:59;;;;;;;15.10;3.50;;;0.90;99.90;;;;;;5016096;28;20105;-79
2023/12/07 11:19:35;;;;;;;22.23;4.57;;;0.90;99.90;;;;;;5016274;28;20038;-79
2023/12/07 11:22:06;;;;;;;27.65;4.22;;;1.00;99.90;;;;;;5014382;28;20036;-79
2023/12/07 11:24:32;;;;;;;11.48;3.92;;;0.90;99.90;;;;;;5014231;28;20022;-79
2023/12/07 11:26:58;;;;;;;16.80;4.80;;;1.00;99.90;;;;;;5016501;28;20108;-79
2023/12/07 11:29:31;;;;;;;21.70;6.00;;;1.00;99.90;;;;;;5016004;28;20485;-79
2023/12/07 11:32:06;;;;;;;21.73;4.47;;;1.00;99.90;;;;;;5014808;28;20022;-79
2023/12/07 11:34:39;;;;;;;36.10;5.43;;;1.00;99.90;;;;;;5016167;28;20022;-79
2023/12/07 11:37:07;;;;;;;21.98;5.13;;;1.00;99.90;;;;;;5014610;28;20041;-79
2023/12/07 11:39:50;;;;;;;37.75;6.40;;;1.00;99.90;;;;;;5013488;28;20022;-78
2023/12/07 11:42:17;;;;;;;22.55;5.40;;;1.00;99.90;;;;;;5014276;28;20559;-79
2023/12/07 11:44:48;;;;;;;28.85;6.10;;;1.00;99.90;;;;;;5014211;28;20093;-79
2023/12/07 11:47:19;;;;;;;26.98;6.13;;;1.00;99.90;;;;;;5014225;28;20026;-79
2023/12/07 11:49:46;;;;;;;28.52;5.82;;;1.00;99.90;;;;;;5015350;28;20026;-78
2023/12/07 11:52:16;;;;;;;20.17;6.30;;;1.10;99.90;;;;;;5014302;28;20030;-79
2023/12/07 11:54:46;;;;;;;26.58;5.35;;;1.10;99.90;;;;;;5015977;28;20058;-78
2023/12/07 11:57:15;;;;;;;22.73;5.85;;;1.10;99.90;;;;;;5014317;28;20113;-79
2023/12/07 11:59:44;;;;;;;22.33;5.55;;;1.10;99.90;;;;;;5015632;28;20022;-79
2023/12/07 12:02:13;;;;;;;24.35;6.28;;;1.20;99.90;;;;;;5014287;28;20026;-79
2023/12/07 12:04:42;;;;;;;33.30;5.88;;;1.20;99.90;;;;;;5014473;28;20101;-79
2023/12/07 12:07:08;;;;;;;39.40;7.00;;;1.20;99.90;;;;;;5014081;28;20022;-79
2023/12/07 12:09:34;;;;;;;24.45;5.75;;;1.20;99.90;;;;;;5013813;28;20030;-79
2023/12/07 12:12:00;;;;;;;30.73;6.50;;;1.30;99.90;;;;;;5015965;28;20018;-79
2023/12/07 12:14:26;;;;;;;25.55;6.82;;;1.20;99.90;;;;;;5013826;28;20476;-79
2023/12/07 12:16:52;;;;;;;29.08;6.53;;;1.30;99.90;;;;;;5014539;28;20404;-79
2023/12/07 12:19:18;;;;;;;24.55;5.93;;;1.30;99.90;;;;;;5014119;28;20524;-78
2023/12/07 12:21:44;;;;;;;25.20;6.88;;;1.30;99.90;;;;;;5014823;28;20025;-79
2023/12/07 12:24:11;;;;;;;28.25;6.32;;;1.30;99.90;;;;;;5013792;28;20539;-74
2023/12/07 12:26:39;;;;;;;18.10;5.63;;;1.30;99.90;;;;;;5015504;28;20527;-76
2023/12/07 12:29:06;;;;;;;22.75;6.20;;;1.90;99.90;;;;;;5014841;28;20022;-76
2023/12/07 12:31:32;;;;;;;25.33;6.38;;;1.40;99.90;;;;;;5014559;28;20030;-76
2023/12/07 12:34:00;;;;;;;31.90;7.55;;;1.40;99.90;;;;;;5014421;28;20032;-76
2023/12/07 12:36:28;;;;;;;36.47;6.45;;;1.40;99.90;;;;;;5013087;28;20071;-76
2023/12/07 12:38:55;;;;;;;27.60;7.53;;;1.50;99.90;;;;;;5014821;28;20377;-76
2023/12/07 12:41:22;;;;;;;24.17;6.75;;;1.50;99.90;;;;;;5014668;28;20030;-76
2023/12/07 12:43:48;;;;;;;36.83;8.00;;;1.60;99.90;;;;;;5013261;28;20117;-76